sensor_id;sensor_type;location;lat;lon;timestamp;P1;durP1;ratioP1;P2;durP2;ratioP2
80625;SDS011;69982;51.758;5.784;2023-05-14T02:44:08;13.20;;;8.00;;
80625;SDS011;69982;51.758;5.784;2023-05-14T02:46:36;12.50;;;8.00;;
80625;SDS011;69982;51.758;5.784;2023-05-14T02:51:33;15.50;;;7.40;;
80625;SDS011;69982;51.758;5.784;2023-05-14T02:54:01;13.20;;;7.60;;
80625;SDS011;69982;51.758;5.784;2023-05-14T02:56:30;12.20;;;7.80;;
80625;SDS011;69982;51.758;5.784;2023-05-14T02:58:59;15.00;;;8.80;;
80625;SDS011;69982;51.758;5.784;2023-05-14T03:01:29;13.00;;;7.90;;
80625;SDS011;69982;51.758;5.784;2023-05-14T03:03:57;13.10;;;8.40;;
80625;SDS011;69982;51.758;5.784;2023-05-14T03:06:25;14.10;;;8.10;;
80625;SDS011;69982;51.758;5.784;2023-05-14T03:08:54;13.60;;;8.30;;
80625;SDS011;69982;51.758;5.784;2023-05-14T03:13:51;13.70;;;8.80;;
80625;SDS011;69982;51.758;5.784;2023-05-14T03:16:19;11.90;;;8.00;;
80625;SDS011;69982;51.758;5.784;2023-05-14T03:18:48;11.20;;;7.90;;
80625;SDS011;69982;51.758;5.784;2023-05-14T03:21:16;12.40;;;8.20;;
80625;SDS011;69982;51.758;5.784;2023-05-14T03:23:44;14.00;;;8.80;;
80625;SDS011;69982;51.758;5.784;2023-05-14T03:26:13;12.20;;;7.30;;
80625;SDS011;69982;51.758;5.784;2023-05-14T03:31:10;14.00;;;7.90;;
80625;SDS011;69982;51.758;5.784;2023-05-14T03:36:06;12.70;;;7.60;;
80625;SDS011;69982;51.758;5.784;2023-05-14T03:38:35;13.20;;;8.20;;
80625;SDS011;69982;51.758;5.784;2023-05-14T03:41:04;13.90;;;8.30;;
80625;SDS011;69982;51.758;5.784;2023-05-14T03:43:32;13.10;;;8.80;;
80625;SDS011;69982;51.758;5.784;2023-05-14T03:46:01;13.50;;;9.00;;
80625;SDS011;69982;51.758;5.784;2023-05-14T03:48:31;13.50;;;8.70;;
80625;SDS011;69982;51.758;5.784;2023-05-14T03:53:29;12.20;;;9.00;;
80625;SDS011;69982;51.758;5.784;2023-05-14T03:55:58;15.40;;;8.50;;
80625;SDS011;69982;51.758;5.784;2023-05-14T03:58:26;16.50;;;9.40;;
80625;SDS011;69982;51.758;5.784;2023-05-14T04:00:55;14.30;;;7.90;;
80625;SDS011;69982;51.758;5.784;2023-05-14T04:03:23;12.70;;;8.70;;
80625;SDS011;69982;51.758;5.784;2023-05-14T04:05:51;15.40;;;8.80;;
80625;SDS011;69982;51.758;5.784;2023-05-14T04:08:19;13.80;;;8.60;;
80625;SDS011;69982;51.758;5.784;2023-05-14T04:10:48;18.00;;;9.50;;
80625;SDS011;69982;51.758;5.784;2023-05-14T04:13:16;14.00;;;9.20;;
80625;SDS011;69982;51.758;5.784;2023-05-14T04:15:45;12.90;;;8.90;;
80625;SDS011;69982;51.758;5.784;2023-05-14T04:18:13;14.80;;;8.60;;
80625;SDS011;69982;51.758;5.784;2023-05-14T04:20:42;13.60;;;8.70;;
80625;SDS011;69982;51.758;5.784;2023-05-14T04:23:11;16.20;;;8.80;;
80625;SDS011;69982;51.758;5.784;2023-05-14T04:25:39;16.40;;;9.40;;
80625;SDS011;69982;51.758;5.784;2023-05-14T04:28:08;16.20;;;9.70;;
80625;SDS011;69982;51.758;5.784;2023-05-14T04:30:36;15.80;;;8.40;;
80625;SDS011;69982;51.758;5.784;2023-05-14T04:33:06;16.60;;;9.10;;
80625;SDS011;69982;51.758;5.784;2023-05-14T04:35:36;15.50;;;8.80;;
80625;SDS011;69982;51.758;5.784;2023-05-14T04:38:05;14.30;;;9.10;;
80625;SDS011;69982;51.758;5.784;2023-05-14T04:40:34;16.60;;;9.10;;
80625;SDS011;69982;51.758;5.784;2023-05-14T04:43:04;16.30;;;9.20;;
80625;SDS011;69982;51.758;5.784;2023-05-14T04:45:33;15.30;;;9.70;;
80625;SDS011;69982;51.758;5.784;2023-05-14T04:48:03;16.40;;;9.60;;
80625;SDS011;69982;51.758;5.784;2023-05-14T04:50:35;16.90;;;9.10;;
80625;SDS011;69982;51.758;5.784;2023-05-14T04:53:05;14.80;;;9.60;;
80625;SDS011;69982;51.758;5.784;2023-05-14T04:55:33;13.70;;;9.30;;
80625;SDS011;69982;51.758;5.784;2023-05-14T04:58:02;13.10;;;9.00;;
80625;SDS011;69982;51.758;5.784;2023-05-14T05:00:32;14.20;;;8.80;;
80625;SDS011;69982;51.758;5.784;2023-05-14T05:03:03;14.80;;;9.60;;
80625;SDS011;69982;51.758;5.784;2023-05-14T05:05:36;12.20;;;8.30;;
80625;SDS011;69982;51.758;5.784;2023-05-14T05:08:05;16.20;;;9.20;;
80625;SDS011;69982;51.758;5.784;2023-05-14T05:10:34;13.90;;;9.00;;
80625;SDS011;69982;51.758;5.784;2023-05-14T05:13:03;13.90;;;9.40;;
80625;SDS011;69982;51.758;5.784;2023-05-14T05:15:32;12.70;;;8.60;;
80625;SDS011;69982;51.758;5.784;2023-05-14T05:18:01;17.40;;;9.60;;
80625;SDS011;69982;51.758;5.784;2023-05-14T05:20:30;17.80;;;9.20;;
80625;SDS011;69982;51.758;5.784;2023-05-14T05:22:59;16.00;;;9.80;;
80625;SDS011;69982;51.758;5.784;2023-05-14T05:25:28;16.80;;;10.10;;
80625;SDS011;69982;51.758;5.784;2023-05-14T05:27:56;18.10;;;11.10;;
80625;SDS011;69982;51.758;5.784;2023-05-14T05:30:24;14.60;;;9.10;;
80625;SDS011;69982;51.758;5.784;2023-05-14T05:32:53;17.50;;;9.70;;
80625;SDS011;69982;51.758;5.784;2023-05-14T05:35:24;16.90;;;8.20;;
80625;SDS011;69982;51.758;5.784;2023-05-14T05:37:53;15.10;;;9.50;;
80625;SDS011;69982;51.758;5.784;2023-05-14T05:40:22;17.60;;;9.90;;
80625;SDS011;69982;51.758;5.784;2023-05-14T05:42:52;15.90;;;8.90;;
80625;SDS011;69982;51.758;5.784;2023-05-14T05:45:20;14.60;;;8.80;;
80625;SDS011;69982;51.758;5.784;2023-05-14T05:47:49;15.90;;;9.70;;
80625;SDS011;69982;51.758;5.784;2023-05-14T06:02:50;18.80;;;10.70;;
80625;SDS011;69982;51.758;5.784;2023-05-14T06:05:20;14.50;;;9.10;;
80625;SDS011;69982;51.758;5.784;2023-05-14T06:10:17;15.10;;;9.90;;
80625;SDS011;69982;51.758;5.784;2023-05-14T06:12:45;16.00;;;9.90;;
80625;SDS011;69982;51.758;5.784;2023-05-14T06:15:14;15.80;;;9.90;;
80625;SDS011;69982;51.758;5.784;2023-05-14T06:17:43;15.50;;;10.70;;
80625;SDS011;69982;51.758;5.784;2023-05-14T06:20:11;18.50;;;10.60;;
80625;SDS011;69982;51.758;5.784;2023-05-14T06:22:40;19.30;;;10.10;;
80625;SDS011;69982;51.758;5.784;2023-05-14T06:25:09;15.20;;;9.50;;
80625;SDS011;69982;51.758;5.784;2023-05-14T06:27:39;19.40;;;10.60;;
80625;SDS011;69982;51.758;5.784;2023-05-14T06:30:08;17.50;;;10.40;;
80625;SDS011;69982;51.758;5.784;2023-05-14T06:32:37;18.50;;;9.60;;
80625;SDS011;69982;51.758;5.784;2023-05-14T06:35:06;15.70;;;10.70;;
80625;SDS011;69982;51.758;5.784;2023-05-14T06:37:35;16.80;;;10.90;;
80625;SDS011;69982;51.758;5.784;2023-05-14T06:40:04;17.10;;;10.40;;
80625;SDS011;69982;51.758;5.784;2023-05-14T06:42:35;15.40;;;10.10;;
80625;SDS011;69982;51.758;5.784;2023-05-14T06:45:04;16.60;;;10.40;;
80625;SDS011;69982;51.758;5.784;2023-05-14T06:47:46;21.20;;;10.30;;
80625;SDS011;69982;51.758;5.784;2023-05-14T06:50:16;15.50;;;9.60;;
80625;SDS011;69982;51.758;5.784;2023-05-14T06:52:44;15.70;;;9.40;;
80625;SDS011;69982;51.758;5.784;2023-05-14T06:55:13;19.90;;;10.60;;
80625;SDS011;69982;51.758;5.784;2023-05-14T06:57:42;18.30;;;10.10;;
80625;SDS011;69982;51.758;5.784;2023-05-14T07:00:12;15.90;;;9.80;;
80625;SDS011;69982;51.758;5.784;2023-05-14T07:02:42;15.10;;;10.30;;
80625;SDS011;69982;51.758;5.784;2023-05-14T07:07:39;17.80;;;10.90;;
80625;SDS011;69982;51.758;5.784;2023-05-14T07:10:08;19.80;;;10.30;;
80625;SDS011;69982;51.758;5.784;2023-05-14T07:12:38;16.40;;;9.80;;
80625;SDS011;69982;51.758;5.784;2023-05-14T07:15:08;15.90;;;10.00;;
80625;SDS011;69982;51.758;5.784;2023-05-14T07:17:37;15.00;;;9.40;;
80625;SDS011;69982;51.758;5.784;2023-05-14T07:20:06;17.60;;;10.70;;
80625;SDS011;69982;51.758;5.784;2023-05-14T07:22:35;17.60;;;9.00;;
80625;SDS011;69982;51.758;5.784;2023-05-14T07:25:04;16.30;;;8.70;;
80625;SDS011;69982;51.758;5.784;2023-05-14T07:27:37;11.20;;;7.80;;
80625;SDS011;69982;51.758;5.784;2023-05-14T07:30:06;22.60;;;10.50;;
80625;SDS011;69982;51.758;5.784;2023-05-14T07:32:36;15.50;;;9.70;;
80625;SDS011;69982;51.758;5.784;2023-05-14T07:35:05;16.50;;;10.40;;
80625;SDS011;69982;51.758;5.784;2023-05-14T07:37:35;18.30;;;9.60;;
80625;SDS011;69982;51.758;5.784;2023-05-14T07:40:04;16.60;;;10.20;;
80625;SDS011;69982;51.758;5.784;2023-05-14T07:42:35;15.50;;;10.20;;
80625;SDS011;69982;51.758;5.784;2023-05-14T07:45:04;18.10;;;10.30;;
80625;SDS011;69982;51.758;5.784;2023-05-14T07:47:34;19.70;;;10.00;;
80625;SDS011;69982;51.758;5.784;2023-05-14T07:50:02;19.20;;;10.30;;
80625;SDS011;69982;51.758;5.784;2023-05-14T07:52:31;16.20;;;10.10;;
80625;SDS011;69982;51.758;5.784;2023-05-14T07:55:01;16.60;;;9.70;;
80625;SDS011;69982;51.758;5.784;2023-05-14T07:57:30;15.80;;;9.10;;
80625;SDS011;69982;51.758;5.784;2023-05-14T08:00:00;15.20;;;9.70;;
80625;SDS011;69982;51.758;5.784;2023-05-14T08:02:28;13.60;;;8.20;;
80625;SDS011;69982;51.758;5.784;2023-05-14T08:04:57;18.10;;;10.40;;
80625;SDS011;69982;51.758;5.784;2023-05-14T08:07:27;13.60;;;9.40;;
80625;SDS011;69982;51.758;5.784;2023-05-14T08:09:57;18.50;;;9.80;;
80625;SDS011;69982;51.758;5.784;2023-05-14T08:12:25;16.40;;;8.40;;
80625;SDS011;69982;51.758;5.784;2023-05-14T08:14:57;15.10;;;8.70;;
80625;SDS011;69982;51.758;5.784;2023-05-14T08:17:27;16.80;;;9.70;;
80625;SDS011;69982;51.758;5.784;2023-05-14T08:19:56;18.20;;;9.80;;
80625;SDS011;69982;51.758;5.784;2023-05-14T08:22:25;15.00;;;8.10;;
80625;SDS011;69982;51.758;5.784;2023-05-14T08:24:53;13.70;;;9.30;;
80625;SDS011;69982;51.758;5.784;2023-05-14T08:27:22;18.00;;;9.40;;
80625;SDS011;69982;51.758;5.784;2023-05-14T08:29:52;15.00;;;9.10;;
80625;SDS011;69982;51.758;5.784;2023-05-14T08:32:21;16.80;;;9.80;;
80625;SDS011;69982;51.758;5.784;2023-05-14T08:34:50;16.30;;;9.80;;
80625;SDS011;69982;51.758;5.784;2023-05-14T08:37:20;16.10;;;9.50;;
80625;SDS011;69982;51.758;5.784;2023-05-14T08:39:48;19.50;;;9.40;;
80625;SDS011;69982;51.758;5.784;2023-05-14T08:42:18;16.60;;;10.00;;
80625;SDS011;69982;51.758;5.784;2023-05-14T08:44:48;17.70;;;9.40;;
80625;SDS011;69982;51.758;5.784;2023-05-14T08:47:24;15.60;;;8.40;;
80625;SDS011;69982;51.758;5.784;2023-05-14T08:50:03;12.30;;;8.70;;
80625;SDS011;69982;51.758;5.784;2023-05-14T08:52:36;14.80;;;9.00;;
80625;SDS011;69982;51.758;5.784;2023-05-14T08:55:05;15.00;;;9.30;;
80625;SDS011;69982;51.758;5.784;2023-05-14T08:57:35;12.80;;;8.60;;
80625;SDS011;69982;51.758;5.784;2023-05-14T09:00:04;13.90;;;8.30;;
80625;SDS011;69982;51.758;5.784;2023-05-14T09:02:40;17.90;;;9.10;;
80625;SDS011;69982;51.758;5.784;2023-05-14T09:05:09;13.40;;;8.50;;
80625;SDS011;69982;51.758;5.784;2023-05-14T09:07:37;15.60;;;8.80;;
80625;SDS011;69982;51.758;5.784;2023-05-14T09:10:07;12.70;;;8.50;;
80625;SDS011;69982;51.758;5.784;2023-05-14T09:12:37;13.10;;;9.10;;
80625;SDS011;69982;51.758;5.784;2023-05-14T09:15:06;14.90;;;9.20;;
80625;SDS011;69982;51.758;5.784;2023-05-14T09:17:35;13.20;;;8.00;;
80625;SDS011;69982;51.758;5.784;2023-05-14T09:20:04;14.10;;;8.50;;
80625;SDS011;69982;51.758;5.784;2023-05-14T09:22:34;12.90;;;8.10;;
80625;SDS011;69982;51.758;5.784;2023-05-14T09:25:03;14.80;;;7.70;;
80625;SDS011;69982;51.758;5.784;2023-05-14T09:27:37;14.80;;;7.80;;
80625;SDS011;69982;51.758;5.784;2023-05-14T09:30:10;14.00;;;8.00;;
80625;SDS011;69982;51.758;5.784;2023-05-14T09:32:40;12.40;;;7.90;;
80625;SDS011;69982;51.758;5.784;2023-05-14T09:35:22;16.90;;;8.20;;
80625;SDS011;69982;51.758;5.784;2023-05-14T09:37:52;16.10;;;8.70;;
80625;SDS011;69982;51.758;5.784;2023-05-14T09:40:22;11.10;;;6.90;;
80625;SDS011;69982;51.758;5.784;2023-05-14T09:42:51;13.30;;;7.20;;
80625;SDS011;69982;51.758;5.784;2023-05-14T09:45:20;14.30;;;8.00;;
80625;SDS011;69982;51.758;5.784;2023-05-14T09:47:48;13.90;;;6.50;;
80625;SDS011;69982;51.758;5.784;2023-05-14T09:50:17;11.30;;;7.20;;
80625;SDS011;69982;51.758;5.784;2023-05-14T09:52:45;13.70;;;8.00;;
80625;SDS011;69982;51.758;5.784;2023-05-14T09:55:15;13.50;;;8.00;;
80625;SDS011;69982;51.758;5.784;2023-05-14T09:57:43;11.60;;;6.80;;
80625;SDS011;69982;51.758;5.784;2023-05-14T10:00:12;12.50;;;6.50;;
80625;SDS011;69982;51.758;5.784;2023-05-14T10:02:42;10.70;;;6.30;;
80625;SDS011;69982;51.758;5.784;2023-05-14T10:05:14;11.60;;;6.70;;
80625;SDS011;69982;51.758;5.784;2023-05-14T10:07:43;12.20;;;7.50;;
80625;SDS011;69982;51.758;5.784;2023-05-14T10:10:19;10.50;;;5.80;;
80625;SDS011;69982;51.758;5.784;2023-05-14T10:12:51;9.40;;;6.40;;
80625;SDS011;69982;51.758;5.784;2023-05-14T10:15:29;9.90;;;6.90;;
80625;SDS011;69982;51.758;5.784;2023-05-14T10:18:06;10.50;;;6.50;;
80625;SDS011;69982;51.758;5.784;2023-05-14T10:20:39;9.00;;;5.80;;
80625;SDS011;69982;51.758;5.784;2023-05-14T10:23:08;11.20;;;6.90;;
80625;SDS011;69982;51.758;5.784;2023-05-14T10:25:38;10.60;;;6.70;;
80625;SDS011;69982;51.758;5.784;2023-05-14T10:28:08;8.90;;;5.30;;
80625;SDS011;69982;51.758;5.784;2023-05-14T10:30:44;8.50;;;5.70;;
80625;SDS011;69982;51.758;5.784;2023-05-14T10:33:14;11.40;;;6.00;;
80625;SDS011;69982;51.758;5.784;2023-05-14T10:35:51;12.10;;;5.90;;
80625;SDS011;69982;51.758;5.784;2023-05-14T10:38:26;10.50;;;5.80;;
80625;SDS011;69982;51.758;5.784;2023-05-14T10:41:00;12.00;;;5.90;;
80625;SDS011;69982;51.758;5.784;2023-05-14T10:43:30;11.80;;;6.60;;
80625;SDS011;69982;51.758;5.784;2023-05-14T10:46:04;8.40;;;5.90;;
80625;SDS011;69982;51.758;5.784;2023-05-14T10:48:34;9.00;;;5.90;;
80625;SDS011;69982;51.758;5.784;2023-05-14T10:51:06;10.30;;;6.30;;
80625;SDS011;69982;51.758;5.784;2023-05-14T10:53:37;12.50;;;5.80;;
80625;SDS011;69982;51.758;5.784;2023-05-14T10:56:09;11.00;;;6.00;;
80625;SDS011;69982;51.758;5.784;2023-05-14T10:58:41;11.60;;;6.30;;
80625;SDS011;69982;51.758;5.784;2023-05-14T11:01:11;9.60;;;6.00;;
80625;SDS011;69982;51.758;5.784;2023-05-14T11:03:41;11.80;;;5.90;;
80625;SDS011;69982;51.758;5.784;2023-05-14T11:06:12;10.20;;;5.70;;
80625;SDS011;69982;51.758;5.784;2023-05-14T11:08:42;10.50;;;5.90;;
80625;SDS011;69982;51.758;5.784;2023-05-14T11:11:11;10.40;;;6.20;;
80625;SDS011;69982;51.758;5.784;2023-05-14T11:13:40;10.20;;;6.10;;
80625;SDS011;69982;51.758;5.784;2023-05-14T11:16:08;8.90;;;6.10;;
80625;SDS011;69982;51.758;5.784;2023-05-14T11:18:51;10.20;;;6.10;;
80625;SDS011;69982;51.758;5.784;2023-05-14T11:21:28;12.40;;;5.80;;
80625;SDS011;69982;51.758;5.784;2023-05-14T11:23:59;11.10;;;5.60;;
80625;SDS011;69982;51.758;5.784;2023-05-14T11:26:32;10.20;;;5.50;;
80625;SDS011;69982;51.758;5.784;2023-05-14T11:29:03;9.50;;;5.20;;
80625;SDS011;69982;51.758;5.784;2023-05-14T11:31:31;8.70;;;5.10;;
80625;SDS011;69982;51.758;5.784;2023-05-14T11:34:00;8.00;;;4.60;;
80625;SDS011;69982;51.758;5.784;2023-05-14T11:36:28;7.30;;;4.60;;
80625;SDS011;69982;51.758;5.784;2023-05-14T11:38:57;8.70;;;5.40;;
80625;SDS011;69982;51.758;5.784;2023-05-14T11:41:26;10.20;;;4.90;;
80625;SDS011;69982;51.758;5.784;2023-05-14T11:43:55;8.70;;;5.10;;
80625;SDS011;69982;51.758;5.784;2023-05-14T11:46:25;7.50;;;4.90;;
80625;SDS011;69982;51.758;5.784;2023-05-14T11:48:56;11.30;;;5.20;;
80625;SDS011;69982;51.758;5.784;2023-05-14T11:51:24;9.60;;;5.30;;
80625;SDS011;69982;51.758;5.784;2023-05-14T11:53:53;8.00;;;5.10;;
80625;SDS011;69982;51.758;5.784;2023-05-14T11:56:21;6.20;;;3.50;;
80625;SDS011;69982;51.758;5.784;2023-05-14T11:58:56;8.20;;;4.30;;
80625;SDS011;69982;51.758;5.784;2023-05-14T12:01:26;7.80;;;4.40;;
80625;SDS011;69982;51.758;5.784;2023-05-14T12:03:58;6.00;;;3.70;;
80625;SDS011;69982;51.758;5.784;2023-05-14T12:06:30;6.50;;;3.80;;
80625;SDS011;69982;51.758;5.784;2023-05-14T12:08:59;8.00;;;4.90;;
80625;SDS011;69982;51.758;5.784;2023-05-14T12:11:30;8.20;;;4.30;;
80625;SDS011;69982;51.758;5.784;2023-05-14T12:13:58;10.60;;;4.30;;
80625;SDS011;69982;51.758;5.784;2023-05-14T12:16:30;8.30;;;3.90;;
80625;SDS011;69982;51.758;5.784;2023-05-14T12:19:00;8.40;;;4.00;;
80625;SDS011;69982;51.758;5.784;2023-05-14T12:21:28;5.90;;;3.70;;
80625;SDS011;69982;51.758;5.784;2023-05-14T12:23:58;9.20;;;3.90;;
80625;SDS011;69982;51.758;5.784;2023-05-14T12:26:31;10.40;;;3.80;;
80625;SDS011;69982;51.758;5.784;2023-05-14T12:29:01;9.80;;;4.20;;
80625;SDS011;69982;51.758;5.784;2023-05-14T12:31:30;6.90;;;3.90;;
80625;SDS011;69982;51.758;5.784;2023-05-14T12:33:59;8.80;;;4.10;;
80625;SDS011;69982;51.758;5.784;2023-05-14T12:36:28;6.90;;;3.30;;
80625;SDS011;69982;51.758;5.784;2023-05-14T12:38:58;8.70;;;3.50;;
80625;SDS011;69982;51.758;5.784;2023-05-14T12:41:31;7.10;;;3.30;;
80625;SDS011;69982;51.758;5.784;2023-05-14T12:44:01;8.30;;;3.50;;
80625;SDS011;69982;51.758;5.784;2023-05-14T12:46:31;7.10;;;4.20;;
80625;SDS011;69982;51.758;5.784;2023-05-14T12:49:00;5.80;;;3.40;;
80625;SDS011;69982;51.758;5.784;2023-05-14T12:51:29;5.90;;;3.50;;
80625;SDS011;69982;51.758;5.784;2023-05-14T12:53:58;4.60;;;2.90;;
80625;SDS011;69982;51.758;5.784;2023-05-14T12:56:29;6.80;;;3.20;;
80625;SDS011;69982;51.758;5.784;2023-05-14T12:58:59;7.90;;;3.00;;
80625;SDS011;69982;51.758;5.784;2023-05-14T13:01:28;5.60;;;3.20;;
80625;SDS011;69982;51.758;5.784;2023-05-14T13:03:56;5.60;;;3.10;;
80625;SDS011;69982;51.758;5.784;2023-05-14T13:06:26;7.50;;;3.70;;
80625;SDS011;69982;51.758;5.784;2023-05-14T13:08:55;5.10;;;2.90;;
80625;SDS011;69982;51.758;5.784;2023-05-14T13:11:26;9.20;;;3.30;;
80625;SDS011;69982;51.758;5.784;2023-05-14T13:13:57;8.50;;;2.90;;
80625;SDS011;69982;51.758;5.784;2023-05-14T13:16:27;6.20;;;3.20;;
80625;SDS011;69982;51.758;5.784;2023-05-14T13:18:56;6.50;;;2.80;;
80625;SDS011;69982;51.758;5.784;2023-05-14T13:21:24;7.00;;;2.50;;
80625;SDS011;69982;51.758;5.784;2023-05-14T13:23:52;7.90;;;2.90;;
80625;SDS011;69982;51.758;5.784;2023-05-14T13:26:21;5.50;;;2.80;;
80625;SDS011;69982;51.758;5.784;2023-05-14T13:28:51;4.70;;;2.50;;
80625;SDS011;69982;51.758;5.784;2023-05-14T13:31:19;6.80;;;2.80;;
80625;SDS011;69982;51.758;5.784;2023-05-14T13:33:48;7.40;;;3.00;;
80625;SDS011;69982;51.758;5.784;2023-05-14T13:36:16;6.50;;;2.80;;
80625;SDS011;69982;51.758;5.784;2023-05-14T13:38:45;6.80;;;2.50;;
80625;SDS011;69982;51.758;5.784;2023-05-14T13:41:14;7.70;;;2.60;;
80625;SDS011;69982;51.758;5.784;2023-05-14T13:43:42;7.70;;;2.50;;
80625;SDS011;69982;51.758;5.784;2023-05-14T13:46:10;6.60;;;2.60;;
80625;SDS011;69982;51.758;5.784;2023-05-14T13:48:40;6.80;;;2.70;;
80625;SDS011;69982;51.758;5.784;2023-05-14T13:51:08;7.10;;;3.10;;
80625;SDS011;69982;51.758;5.784;2023-05-14T13:53:39;6.30;;;2.70;;
80625;SDS011;69982;51.758;5.784;2023-05-14T13:56:07;8.50;;;2.60;;
80625;SDS011;69982;51.758;5.784;2023-05-14T13:58:36;3.40;;;1.90;;
80625;SDS011;69982;51.758;5.784;2023-05-14T14:01:04;4.20;;;2.10;;
80625;SDS011;69982;51.758;5.784;2023-05-14T14:03:32;8.90;;;2.50;;
80625;SDS011;69982;51.758;5.784;2023-05-14T14:06:01;7.10;;;1.90;;
80625;SDS011;69982;51.758;5.784;2023-05-14T14:08:30;5.40;;;2.60;;
80625;SDS011;69982;51.758;5.784;2023-05-14T14:10:58;4.50;;;2.60;;
80625;SDS011;69982;51.758;5.784;2023-05-14T14:13:26;7.50;;;2.60;;
80625;SDS011;69982;51.758;5.784;2023-05-14T14:15:56;4.80;;;2.40;;
80625;SDS011;69982;51.758;5.784;2023-05-14T14:18:25;5.40;;;2.50;;
80625;SDS011;69982;51.758;5.784;2023-05-14T14:20:53;5.10;;;2.10;;
80625;SDS011;69982;51.758;5.784;2023-05-14T14:23:21;7.20;;;2.40;;
80625;SDS011;69982;51.758;5.784;2023-05-14T14:25:50;6.10;;;2.10;;
80625;SDS011;69982;51.758;5.784;2023-05-14T14:28:19;5.00;;;2.50;;
80625;SDS011;69982;51.758;5.784;2023-05-14T14:30:48;5.00;;;2.50;;
80625;SDS011;69982;51.758;5.784;2023-05-14T14:33:17;5.50;;;2.50;;
80625;SDS011;69982;51.758;5.784;2023-05-14T14:35:46;5.40;;;2.40;;
80625;SDS011;69982;51.758;5.784;2023-05-14T14:38:14;5.30;;;2.20;;
80625;SDS011;69982;51.758;5.784;2023-05-14T14:40:42;5.80;;;2.30;;
80625;SDS011;69982;51.758;5.784;2023-05-14T14:43:10;3.70;;;2.20;;
80625;SDS011;69982;51.758;5.784;2023-05-14T14:45:40;4.00;;;2.20;;
80625;SDS011;69982;51.758;5.784;2023-05-14T14:50:58;6.70;;;2.60;;
80625;SDS011;69982;51.758;5.784;2023-05-14T14:53:30;6.40;;;2.20;;
80625;SDS011;69982;51.758;5.784;2023-05-14T14:55:59;4.90;;;2.40;;
80625;SDS011;69982;51.758;5.784;2023-05-14T14:58:28;3.90;;;2.30;;
80625;SDS011;69982;51.758;5.784;2023-05-14T15:00:58;5.60;;;2.10;;
80625;SDS011;69982;51.758;5.784;2023-05-14T15:03:28;7.80;;;2.30;;
80625;SDS011;69982;51.758;5.784;2023-05-14T15:05:57;3.80;;;2.10;;
80625;SDS011;69982;51.758;5.784;2023-05-14T15:08:27;5.00;;;2.30;;
80625;SDS011;69982;51.758;5.784;2023-05-14T15:10:55;4.30;;;2.40;;
80625;SDS011;69982;51.758;5.784;2023-05-14T15:13:24;5.70;;;2.40;;
80625;SDS011;69982;51.758;5.784;2023-05-14T15:15:53;5.80;;;2.00;;
80625;SDS011;69982;51.758;5.784;2023-05-14T15:18:22;6.70;;;2.50;;
80625;SDS011;69982;51.758;5.784;2023-05-14T15:20:50;4.90;;;2.30;;
80625;SDS011;69982;51.758;5.784;2023-05-14T15:23:20;5.20;;;2.60;;
80625;SDS011;69982;51.758;5.784;2023-05-14T15:25:49;6.30;;;2.30;;
80625;SDS011;69982;51.758;5.784;2023-05-14T15:28:18;9.80;;;2.70;;
80625;SDS011;69982;51.758;5.784;2023-05-14T15:30:46;5.50;;;2.40;;
80625;SDS011;69982;51.758;5.784;2023-05-14T15:33:15;5.40;;;2.20;;
80625;SDS011;69982;51.758;5.784;2023-05-14T15:35:46;4.10;;;2.40;;
80625;SDS011;69982;51.758;5.784;2023-05-14T15:38:14;5.40;;;2.60;;
80625;SDS011;69982;51.758;5.784;2023-05-14T15:40:43;5.00;;;2.10;;
80625;SDS011;69982;51.758;5.784;2023-05-14T15:43:12;7.00;;;2.30;;
80625;SDS011;69982;51.758;5.784;2023-05-14T15:45:43;5.80;;;2.30;;
80625;SDS011;69982;51.758;5.784;2023-05-14T15:48:12;4.80;;;2.40;;
80625;SDS011;69982;51.758;5.784;2023-05-14T15:50:41;7.10;;;2.50;;
80625;SDS011;69982;51.758;5.784;2023-05-14T15:53:09;6.90;;;2.30;;
80625;SDS011;69982;51.758;5.784;2023-05-14T15:55:38;5.20;;;2.80;;
80625;SDS011;69982;51.758;5.784;2023-05-14T15:58:08;4.60;;;2.50;;
80625;SDS011;69982;51.758;5.784;2023-05-14T16:00:39;5.50;;;2.30;;
80625;SDS011;69982;51.758;5.784;2023-05-14T16:03:08;4.70;;;3.00;;
80625;SDS011;69982;51.758;5.784;2023-05-14T16:05:36;6.60;;;2.90;;
80625;SDS011;69982;51.758;5.784;2023-05-14T16:08:05;6.00;;;3.70;;
80625;SDS011;69982;51.758;5.784;2023-05-14T16:10:34;8.50;;;4.60;;
80625;SDS011;69982;51.758;5.784;2023-05-14T16:13:03;8.90;;;5.20;;
80625;SDS011;69982;51.758;5.784;2023-05-14T16:15:32;9.00;;;4.10;;
80625;SDS011;69982;51.758;5.784;2023-05-14T16:18:01;8.40;;;4.60;;
80625;SDS011;69982;51.758;5.784;2023-05-14T16:20:30;7.80;;;3.70;;
80625;SDS011;69982;51.758;5.784;2023-05-14T16:22:59;7.70;;;3.70;;
80625;SDS011;69982;51.758;5.784;2023-05-14T16:25:28;6.20;;;3.40;;
80625;SDS011;69982;51.758;5.784;2023-05-14T16:27:58;7.10;;;3.20;;
80625;SDS011;69982;51.758;5.784;2023-05-14T16:30:29;7.50;;;3.80;;
80625;SDS011;69982;51.758;5.784;2023-05-14T16:32:58;13.00;;;3.30;;
80625;SDS011;69982;51.758;5.784;2023-05-14T16:35:28;24.60;;;5.20;;
80625;SDS011;69982;51.758;5.784;2023-05-14T16:37:56;8.70;;;3.70;;
80625;SDS011;69982;51.758;5.784;2023-05-14T16:40:27;7.50;;;4.20;;
80625;SDS011;69982;51.758;5.784;2023-05-14T16:42:56;8.20;;;3.60;;
80625;SDS011;69982;51.758;5.784;2023-05-14T16:45:24;9.10;;;3.70;;
80625;SDS011;69982;51.758;5.784;2023-05-14T16:47:52;5.90;;;3.70;;
80625;SDS011;69982;51.758;5.784;2023-05-14T16:50:20;9.90;;;3.80;;
80625;SDS011;69982;51.758;5.784;2023-05-14T16:52:48;6.10;;;3.80;;
80625;SDS011;69982;51.758;5.784;2023-05-14T16:55:16;7.00;;;3.50;;
80625;SDS011;69982;51.758;5.784;2023-05-14T16:57:46;7.30;;;4.30;;
80625;SDS011;69982;51.758;5.784;2023-05-14T17:00:14;11.10;;;3.80;;
80625;SDS011;69982;51.758;5.784;2023-05-14T17:02:44;9.40;;;3.60;;
80625;SDS011;69982;51.758;5.784;2023-05-14T17:05:16;7.40;;;3.70;;
80625;SDS011;69982;51.758;5.784;2023-05-14T17:07:46;5.90;;;3.10;;
80625;SDS011;69982;51.758;5.784;2023-05-14T17:10:14;9.00;;;3.30;;
80625;SDS011;69982;51.758;5.784;2023-05-14T17:12:44;9.20;;;3.30;;
80625;SDS011;69982;51.758;5.784;2023-05-14T17:15:13;11.90;;;3.40;;
80625;SDS011;69982;51.758;5.784;2023-05-14T17:17:43;8.20;;;3.20;;
80625;SDS011;69982;51.758;5.784;2023-05-14T17:20:12;9.00;;;3.40;;
80625;SDS011;69982;51.758;5.784;2023-05-14T17:22:41;9.50;;;3.40;;
80625;SDS011;69982;51.758;5.784;2023-05-14T17:25:10;8.20;;;3.30;;
80625;SDS011;69982;51.758;5.784;2023-05-14T17:27:38;5.50;;;3.20;;
80625;SDS011;69982;51.758;5.784;2023-05-14T17:30:06;10.60;;;3.70;;
80625;SDS011;69982;51.758;5.784;2023-05-14T17:32:35;8.10;;;3.80;;
80625;SDS011;69982;51.758;5.784;2023-05-14T17:35:04;12.00;;;3.60;;
80625;SDS011;69982;51.758;5.784;2023-05-14T17:37:33;11.40;;;3.70;;
80625;SDS011;69982;51.758;5.784;2023-05-14T17:40:03;11.00;;;4.00;;
80625;SDS011;69982;51.758;5.784;2023-05-14T17:42:32;10.10;;;3.90;;
80625;SDS011;69982;51.758;5.784;2023-05-14T17:45:00;8.10;;;3.50;;
80625;SDS011;69982;51.758;5.784;2023-05-14T17:47:29;7.20;;;3.60;;
80625;SDS011;69982;51.758;5.784;2023-05-14T17:49:57;10.40;;;4.40;;
80625;SDS011;69982;51.758;5.784;2023-05-14T17:52:25;10.10;;;4.20;;
80625;SDS011;69982;51.758;5.784;2023-05-14T17:54:54;9.20;;;4.30;;
80625;SDS011;69982;51.758;5.784;2023-05-14T17:57:22;10.70;;;4.70;;
80625;SDS011;69982;51.758;5.784;2023-05-14T17:59:51;10.70;;;4.50;;
80625;SDS011;69982;51.758;5.784;2023-05-14T18:02:19;9.50;;;4.90;;
80625;SDS011;69982;51.758;5.784;2023-05-14T18:04:49;10.50;;;4.80;;
80625;SDS011;69982;51.758;5.784;2023-05-14T18:07:18;8.80;;;4.80;;